createdAt,value
2019-04-25T00:01:57.333Z,5.45
2019-04-25T00:04:42.611Z,7.03
2019-04-25T00:07:11.954Z,6.12
2019-04-25T00:09:43.077Z,6.72
2019-04-25T00:12:14.690Z,6.65
2019-04-25T00:14:44.134Z,6.45
2019-04-25T00:17:13.100Z,6.58
2019-04-25T00:19:43.341Z,7.20
2019-04-25T00:22:16.700Z,6.87
2019-04-25T00:24:51.562Z,7.47
2019-04-25T00:27:21.686Z,6.72
2019-04-25T00:29:51.879Z,6.10
2019-04-25T00:32:21.638Z,6.47
2019-04-25T00:34:55.786Z,6.45
2019-04-25T00:37:24.448Z,6.22
2019-04-25T00:39:55.790Z,7.60
2019-04-25T00:42:24.525Z,6.60
2019-04-25T00:44:53.530Z,7.22
2019-04-25T00:47:22.280Z,7.17
2019-04-25T00:49:52.391Z,6.90
2019-04-25T00:52:22.759Z,6.40
2019-04-25T00:54:52.604Z,7.37
2019-04-25T00:57:22.502Z,6.83
2019-04-25T00:59:58.730Z,7.00
2019-04-25T01:02:35.169Z,6.25
2019-04-25T01:05:05.057Z,6.75
2019-04-25T01:07:34.530Z,6.58
2019-04-25T01:10:05.590Z,7.53
2019-04-25T01:12:34.242Z,7.22
2019-04-25T01:15:22.412Z,7.40
2019-04-25T01:17:52.210Z,7.15
2019-04-25T01:20:21.590Z,6.35
2019-04-25T01:22:51.360Z,6.25
2019-04-25T01:25:20.209Z,7.45
2019-04-25T01:27:49.717Z,7.10
2019-04-25T01:30:20.386Z,7.10
2019-04-25T01:32:50.619Z,6.78
2019-04-25T01:35:20.900Z,7.35
2019-04-25T01:37:51.184Z,6.80
2019-04-25T01:40:37.434Z,6.60
2019-04-25T01:43:23.706Z,6.83
2019-04-25T01:45:54.040Z,6.80
2019-04-25T01:48:23.497Z,7.17
2019-04-25T01:50:52.825Z,6.75
2019-04-25T01:53:24.137Z,7.47
2019-04-25T01:56:02.374Z,6.80
2019-04-25T01:58:25.521Z,6.72
2019-04-25T02:00:56.055Z,7.15
2019-04-25T02:03:27.101Z,7.35
2019-04-25T02:05:56.156Z,7.20
2019-04-25T02:08:25.788Z,6.80
2019-04-25T02:10:58.994Z,7.25
2019-04-25T02:13:33.626Z,7.03
2019-04-25T02:16:05.984Z,7.42
2019-04-25T02:18:34.624Z,7.37
2019-04-25T02:21:04.516Z,6.53
2019-04-25T02:23:34.148Z,7.53
2019-04-25T02:26:13.421Z,7.55
2019-04-25T02:28:33.805Z,6.97
2019-04-25T02:31:08.216Z,6.53
2019-04-25T02:33:40.783Z,7.58
2019-04-25T02:36:09.505Z,7.85
2019-04-25T02:38:39.621Z,7.03
2019-04-25T02:41:09.120Z,8.13
2019-04-25T02:43:38.189Z,7.33
2019-04-25T02:46:11.801Z,6.87
2019-04-25T02:48:51.236Z,7.97
2019-04-25T02:51:30.863Z,6.95
2019-04-25T02:54:07.833Z,6.62
2019-04-25T02:56:38.674Z,8.03
2019-04-25T02:59:08.798Z,7.55
2019-04-25T03:01:36.238Z,8.48
2019-04-25T03:04:10.719Z,7.60
2019-04-25T03:06:36.314Z,8.28
2019-04-25T03:09:09.818Z,7.75
2019-04-25T03:11:38.831Z,7.67
2019-04-25T03:14:10.029Z,8.25
2019-04-25T03:16:38.095Z,7.35
2019-04-25T03:19:26.330Z,8.00
2019-04-25T03:21:56.564Z,8.45
2019-04-25T03:24:27.159Z,8.73
2019-04-25T03:26:55.999Z,10.25
2019-04-25T03:29:24.879Z,10.85
2019-04-25T03:31:56.096Z,11.35
2019-04-25T03:34:29.246Z,10.68
2019-04-25T03:36:57.914Z,10.98
2019-04-25T03:39:27.113Z,10.90
2019-04-25T03:41:56.028Z,10.65
2019-04-25T03:44:25.374Z,10.40
2019-04-25T03:46:54.071Z,10.55
2019-04-25T03:49:23.853Z,10.98
2019-04-25T03:51:53.843Z,11.05
2019-04-25T03:54:23.588Z,10.88
2019-04-25T03:56:58.660Z,10.45
2019-04-25T03:59:27.339Z,11.55
2019-04-25T04:01:56.291Z,10.58
2019-04-25T04:04:25.312Z,11.28
2019-04-25T04:06:54.014Z,12.47
2019-04-25T04:09:24.032Z,11.15
2019-04-25T04:11:53.538Z,10.70
2019-04-25T04:14:23.957Z,9.63
2019-04-25T04:17:10.884Z,10.53
2019-04-25T04:19:57.211Z,10.50
2019-04-25T04:22:30.854Z,10.98
2019-04-25T04:25:27.157Z,9.88
2019-04-25T04:28:00.360Z,9.03
2019-04-25T04:30:45.377Z,9.18
2019-04-25T04:33:29.612Z,9.25
2019-04-25T04:35:49.854Z,10.08
2019-04-25T04:38:18.697Z,10.30
2019-04-25T04:40:49.484Z,10.93
2019-04-25T04:43:23.950Z,12.65
2019-04-25T04:45:54.163Z,13.32
2019-04-25T04:48:24.315Z,15.32
2019-04-25T04:50:58.545Z,15.53
2019-04-25T04:53:29.203Z,14.70
2019-04-25T04:56:04.178Z,13.15
2019-04-25T04:58:40.008Z,12.63
2019-04-25T05:01:08.666Z,13.60
2019-04-25T05:04:13.046Z,15.05
2019-04-25T05:07:01.222Z,14.45
2019-04-25T05:09:29.974Z,14.40
2019-04-25T05:11:58.660Z,14.00
2019-04-25T05:14:27.511Z,12.90
2019-04-25T05:16:59.366Z,16.77
2019-04-25T05:19:30.851Z,14.95
2019-04-25T05:21:59.612Z,14.80
2019-04-25T05:24:28.323Z,16.17
2019-04-25T05:26:57.019Z,16.55
2019-04-25T05:29:26.675Z,20.48
2019-04-25T05:31:58.307Z,20.37
2019-04-25T05:34:27.043Z,19.00
2019-04-25T05:36:56.336Z,20.35
2019-04-25T05:39:26.972Z,18.73
2019-04-25T05:42:00.334Z,20.45
2019-04-25T05:44:28.995Z,16.23
2019-04-25T05:46:57.661Z,14.95
2019-04-25T05:49:29.611Z,15.95
2019-04-25T05:51:59.506Z,14.20
2019-04-25T05:54:30.050Z,14.33
2019-04-25T05:57:05.237Z,13.85
2019-04-25T05:59:35.422Z,14.00
2019-04-25T06:02:07.396Z,14.30
2019-04-25T06:04:41.167Z,14.28
2019-04-25T06:07:14.364Z,13.25
2019-04-25T06:09:48.639Z,12.78
2019-04-25T06:12:26.208Z,13.72
2019-04-25T06:14:56.363Z,12.80
2019-04-25T06:17:30.151Z,11.97
2019-04-25T06:20:04.426Z,12.03
2019-04-25T06:22:50.836Z,11.57
2019-04-25T06:25:29.758Z,11.65
2019-04-25T06:27:58.566Z,11.35
2019-04-25T06:30:31.703Z,11.22
2019-04-25T06:33:00.579Z,13.38
2019-04-25T06:35:29.571Z,13.32
2019-04-25T06:37:58.319Z,13.78
2019-04-25T06:40:37.130Z,13.95
2019-04-25T06:43:13.632Z,13.62
2019-04-25T06:46:00.423Z,12.82
2019-04-25T06:48:39.594Z,12.78
2019-04-25T06:51:09.764Z,13.08
2019-04-25T06:53:38.512Z,11.85
2019-04-25T06:56:08.634Z,13.18
2019-04-25T06:58:39.283Z,12.65
2019-04-25T07:01:08.042Z,13.13
2019-04-25T07:03:41.763Z,12.93
2019-04-25T07:06:12.929Z,11.70
2019-04-25T07:08:43.001Z,11.35
2019-04-25T07:11:13.983Z,11.43
2019-04-25T07:13:44.006Z,10.93
2019-04-25T07:16:13.397Z,11.18
2019-04-25T07:18:44.115Z,9.93
2019-04-25T07:21:14.294Z,9.03
2019-04-25T07:24:04.160Z,9.55
2019-04-25T07:26:47.187Z,9.23
2019-04-25T07:29:20.250Z,9.30
2019-04-25T07:32:06.927Z,9.70
2019-04-25T07:34:35.597Z,10.90
2019-04-25T07:37:04.249Z,9.63
2019-04-25T07:39:34.374Z,10.80
2019-04-25T07:42:04.147Z,10.78
2019-04-25T07:44:41.997Z,10.25
2019-04-25T07:47:05.330Z,9.25
2019-04-25T07:49:34.839Z,9.00
2019-04-25T07:52:03.824Z,9.38
2019-04-25T07:54:34.051Z,8.45
2019-04-25T07:57:03.617Z,8.50
2019-04-25T07:59:34.812Z,8.40
2019-04-25T08:02:03.468Z,8.55
2019-04-25T08:04:32.205Z,7.67
2019-04-25T08:07:00.874Z,7.78
2019-04-25T08:09:29.620Z,7.83
2019-04-25T08:11:58.288Z,8.00
2019-04-25T08:14:32.065Z,7.40
2019-04-25T08:17:08.126Z,7.25
2019-04-25T08:19:37.177Z,6.35
2019-04-25T08:22:07.688Z,7.75
2019-04-25T08:24:46.659Z,7.35
2019-04-25T08:27:15.313Z,6.37
2019-04-25T08:29:45.560Z,6.92
2019-04-25T08:32:15.442Z,7.10
2019-04-25T08:34:46.723Z,8.35
2019-04-25T08:37:18.976Z,6.87
2019-04-25T08:39:45.956Z,7.03
2019-04-25T08:42:15.163Z,6.08
2019-04-25T08:44:44.942Z,7.12
2019-04-25T08:47:14.505Z,7.62
2019-04-25T08:49:49.611Z,8.13
2019-04-25T08:52:21.653Z,7.12
2019-04-25T08:55:04.328Z,7.62
2019-04-25T08:57:50.233Z,6.45
2019-04-25T09:00:24.116Z,6.92
2019-04-25T09:02:54.499Z,6.30
2019-04-25T09:05:37.427Z,6.92
2019-04-25T09:08:06.632Z,7.08
2019-04-25T09:10:41.278Z,7.03
2019-04-25T09:13:10.238Z,7.17
2019-04-25T09:15:39.456Z,7.22
2019-04-25T09:18:08.302Z,7.30
2019-04-25T09:20:46.643Z,8.45
2019-04-25T09:23:47.992Z,7.30
2019-04-25T09:26:30.227Z,7.17
2019-04-25T09:28:58.968Z,7.08
2019-04-25T09:31:29.479Z,7.42
2019-04-25T09:34:09.515Z,7.55
2019-04-25T09:36:38.324Z,7.70
2019-04-25T09:39:26.529Z,8.38
2019-04-25T09:41:55.315Z,7.72
2019-04-25T09:44:36.147Z,7.35
2019-04-25T09:47:06.327Z,7.03
2019-04-25T09:49:36.909Z,8.00
2019-04-25T09:52:08.180Z,9.00
2019-04-25T09:54:38.592Z,8.03
2019-04-25T09:57:13.437Z,7.55
2019-04-25T09:59:43.651Z,7.45
2019-04-25T10:02:13.448Z,7.58
2019-04-25T10:04:42.192Z,7.12
2019-04-25T10:07:12.003Z,7.58
2019-04-25T10:10:03.651Z,9.10
2019-04-25T10:12:41.325Z,9.05
2019-04-25T10:15:43.012Z,8.08
2019-04-25T10:18:18.466Z,7.97
2019-04-25T10:20:54.263Z,9.03
2019-04-25T10:24:00.733Z,8.60
2019-04-25T10:26:29.943Z,8.03
2019-04-25T10:29:03.598Z,8.10
2019-04-25T10:31:33.903Z,7.35
2019-04-25T10:34:03.819Z,7.67
2019-04-25T10:36:33.642Z,7.55
2019-04-25T10:39:08.625Z,7.58
2019-04-25T10:41:35.860Z,8.35
2019-04-25T10:44:05.616Z,6.90
2019-04-25T10:46:45.681Z,7.85
2019-04-25T10:49:14.501Z,7.05
2019-04-25T10:51:44.723Z,7.22
2019-04-25T10:54:14.564Z,7.20
2019-04-25T10:56:45.679Z,7.70
2019-04-25T10:59:15.705Z,7.28
2019-04-25T11:01:46.021Z,7.42
2019-04-25T11:04:16.514Z,7.90
2019-04-25T11:06:45.599Z,7.92
2019-04-25T11:09:19.110Z,9.20
2019-04-25T11:11:48.163Z,8.35
2019-04-25T11:14:23.943Z,8.50
2019-04-25T11:16:55.051Z,9.20
2019-04-25T11:19:23.960Z,8.08
2019-04-25T11:21:53.818Z,7.00
2019-04-25T11:24:24.539Z,7.87
2019-04-25T11:26:55.147Z,8.48
2019-04-25T11:29:24.275Z,9.23
2019-04-25T11:31:53.467Z,7.05
2019-04-25T11:34:23.052Z,7.95
2019-04-25T11:36:51.711Z,9.30
2019-04-25T11:39:28.042Z,8.15
2019-04-25T11:41:57.023Z,7.80
2019-04-25T11:44:25.697Z,7.20
2019-04-25T11:46:54.421Z,7.60
2019-04-25T11:49:23.895Z,8.08
2019-04-25T11:51:52.710Z,6.53
2019-04-25T11:54:21.376Z,7.83
2019-04-25T11:56:50.781Z,7.83
2019-04-25T11:59:23.540Z,8.18
2019-04-25T12:01:52.439Z,8.00
2019-04-25T12:04:21.337Z,7.95
2019-04-25T12:06:50.074Z,7.97
2019-04-25T12:09:20.238Z,8.00
2019-04-25T12:11:49.909Z,8.23
2019-04-25T12:14:18.906Z,7.90
2019-04-25T12:16:49.080Z,7.33
2019-04-25T12:19:18.256Z,7.83
2019-04-25T12:21:46.858Z,8.45
2019-04-25T12:24:15.601Z,8.40
2019-04-25T12:26:46.533Z,8.75
2019-04-25T12:29:14.856Z,9.00
2019-04-25T12:31:46.412Z,8.05
2019-04-25T12:34:15.009Z,8.65
2019-04-25T12:36:44.408Z,8.93
2019-04-25T12:39:13.995Z,8.45
2019-04-25T12:41:46.750Z,8.85
2019-04-25T12:44:33.732Z,8.43
2019-04-25T12:47:19.441Z,8.45
2019-04-25T12:49:50.583Z,7.47
2019-04-25T12:52:19.424Z,7.95
2019-04-25T12:54:49.765Z,8.93
2019-04-25T12:57:19.874Z,7.50
2019-04-25T12:59:51.124Z,7.60
2019-04-25T13:02:23.554Z,8.70
2019-04-25T13:05:04.350Z,8.20
2019-04-25T13:07:32.821Z,8.15
2019-04-25T13:10:01.470Z,8.80
2019-04-25T13:12:30.193Z,9.18
2019-04-25T13:14:58.898Z,8.43
2019-04-25T13:17:27.610Z,8.45
2019-04-25T13:19:56.736Z,8.93
2019-04-25T13:22:27.368Z,9.33
2019-04-25T13:25:07.101Z,8.45
2019-04-25T13:27:39.980Z,9.75
2019-04-25T13:30:19.910Z,8.75
2019-04-25T13:32:59.140Z,9.20
2019-04-25T13:35:29.922Z,7.80
2019-04-25T13:37:59.330Z,8.25
2019-04-25T13:40:28.066Z,9.03
2019-04-25T13:42:57.975Z,7.92
2019-04-25T13:45:26.950Z,9.88
2019-04-25T13:47:57.313Z,8.80
2019-04-25T13:50:26.164Z,7.55
2019-04-25T13:52:54.881Z,8.35
2019-04-25T13:55:24.028Z,8.23
2019-04-25T13:57:54.833Z,8.28
2019-04-25T14:00:26.070Z,9.18
2019-04-25T14:02:54.825Z,7.97
2019-04-25T14:05:24.938Z,8.40
2019-04-25T14:07:54.720Z,7.90
2019-04-25T14:10:25.179Z,8.95
2019-04-25T14:12:54.695Z,8.60
2019-04-25T14:15:25.448Z,8.15
2019-04-25T14:17:55.920Z,8.60
2019-04-25T14:20:32.690Z,8.98
2019-04-25T14:23:03.447Z,8.68
2019-04-25T14:25:33.118Z,8.83
2019-04-25T14:28:02.220Z,7.97
2019-04-25T14:30:34.217Z,8.28
2019-04-25T14:33:08.794Z,8.95
2019-04-25T14:35:37.666Z,8.15
2019-04-25T14:38:06.505Z,8.60
2019-04-25T14:40:35.229Z,8.20
2019-04-25T14:43:05.198Z,8.35
2019-04-25T14:45:44.011Z,8.15
2019-04-25T14:48:04.889Z,8.05
2019-04-25T14:50:34.117Z,9.43
2019-04-25T14:53:03.081Z,7.58
2019-04-25T14:55:36.405Z,8.15
2019-04-25T14:58:06.717Z,8.68
2019-04-25T15:00:42.759Z,8.65
2019-04-25T15:03:11.920Z,9.00
2019-04-25T15:05:41.957Z,8.65
2019-04-25T15:08:11.030Z,8.55
2019-04-25T15:10:40.949Z,8.10
2019-04-25T15:13:09.980Z,8.35
2019-04-25T15:15:38.625Z,7.78
2019-04-25T15:18:10.504Z,8.93
2019-04-25T15:20:39.134Z,8.43
2019-04-25T15:23:07.838Z,8.63
2019-04-25T15:25:37.035Z,8.03
2019-04-25T15:28:05.728Z,8.13
2019-04-25T15:30:36.029Z,9.58
2019-04-25T15:33:04.907Z,7.85
2019-04-25T15:35:35.199Z,8.43
2019-04-25T15:38:08.329Z,10.13
2019-04-25T15:40:41.669Z,8.28
2019-04-25T15:43:14.893Z,7.80
2019-04-25T15:45:45.200Z,8.95
2019-04-25T15:48:14.036Z,8.10
2019-04-25T15:50:43.074Z,8.88
2019-04-25T15:53:11.748Z,8.25
2019-04-25T15:55:40.812Z,8.33
2019-04-25T15:58:09.611Z,8.23
2019-04-25T16:00:38.964Z,8.63
2019-04-25T16:03:07.733Z,8.80
2019-04-25T16:05:36.994Z,9.30
2019-04-25T16:08:06.305Z,9.13
2019-04-25T16:10:34.980Z,8.80
2019-04-25T16:13:04.032Z,8.20
2019-04-25T16:15:33.220Z,7.62
2019-04-25T16:18:02.044Z,7.42
2019-04-25T16:20:31.466Z,10.08
2019-04-25T16:23:00.418Z,7.72
2019-04-25T16:25:29.969Z,8.88
2019-04-25T16:27:58.879Z,8.90
2019-04-25T16:30:32.548Z,7.83
2019-04-25T16:33:01.236Z,7.62
2019-04-25T16:35:30.943Z,7.67
2019-04-25T16:38:00.051Z,8.85
2019-04-25T16:40:29.835Z,7.97
2019-04-25T16:43:14.408Z,8.25
2019-04-25T16:45:46.091Z,8.25
2019-04-25T16:48:19.927Z,8.28
2019-04-25T16:50:48.639Z,7.20
2019-04-25T16:53:17.342Z,9.03
2019-04-25T16:55:45.879Z,7.62
2019-04-25T16:58:15.060Z,8.13
2019-04-25T17:00:48.273Z,9.10
2019-04-25T17:03:17.707Z,9.28
2019-04-25T17:05:46.557Z,8.78
2019-04-25T17:08:15.217Z,8.55
2019-04-25T17:10:47.198Z,8.55
2019-04-25T17:13:16.126Z,9.13
2019-04-25T17:15:46.578Z,8.70
2019-04-25T17:18:22.831Z,10.93
2019-04-25T17:21:05.076Z,9.63
2019-04-25T17:23:34.526Z,10.25
2019-04-25T17:26:04.551Z,10.55
2019-04-25T17:28:34.985Z,7.70
2019-04-25T17:31:20.667Z,8.55
2019-04-25T17:33:50.976Z,9.50
2019-04-25T17:36:38.639Z,9.23
2019-04-25T17:39:27.604Z,9.58
2019-04-25T17:41:56.380Z,12.82
2019-04-25T17:44:25.063Z,8.43
2019-04-25T17:47:05.653Z,8.78
2019-04-25T17:49:24.027Z,9.33
2019-04-25T17:51:58.824Z,9.63
2019-04-25T17:54:27.482Z,10.50
2019-04-25T17:56:56.418Z,9.05
2019-04-25T17:59:25.161Z,8.73
2019-04-25T18:01:59.423Z,9.33
2019-04-25T18:04:28.128Z,9.00
2019-04-25T18:06:56.829Z,8.35
2019-04-25T18:09:25.488Z,10.48
2019-04-25T18:11:54.201Z,9.75
2019-04-25T18:14:22.912Z,8.40
2019-04-25T18:16:57.767Z,9.40
2019-04-25T18:19:28.300Z,11.10
2019-04-25T18:21:58.631Z,10.40
2019-04-25T18:24:41.124Z,9.78
2019-04-25T18:27:29.790Z,9.85
2019-04-25T18:30:00.502Z,10.32
2019-04-25T18:32:31.640Z,10.63
2019-04-25T18:35:02.005Z,9.43
2019-04-25T18:37:32.409Z,11.65
2019-04-25T18:40:02.697Z,9.88
2019-04-25T18:42:36.512Z,9.65
2019-04-25T18:45:08.244Z,9.90
2019-04-25T18:47:38.277Z,9.63
2019-04-25T18:50:08.365Z,10.20
2019-04-25T18:52:45.019Z,9.08
2019-04-25T18:55:20.541Z,9.35
2019-04-25T18:57:53.838Z,10.00
2019-04-25T19:00:29.748Z,7.95
2019-04-25T19:03:06.197Z,9.60
2019-04-25T19:05:36.535Z,9.08
2019-04-25T19:08:06.602Z,10.50
2019-04-25T19:10:35.420Z,9.45
2019-04-25T19:13:12.494Z,9.50
2019-04-25T19:15:34.559Z,10.45
2019-04-25T19:18:03.478Z,10.08
2019-04-25T19:20:32.247Z,10.00
2019-04-25T19:23:01.002Z,10.65
2019-04-25T19:25:29.710Z,11.53
2019-04-25T19:27:58.363Z,11.20
2019-04-25T19:30:27.109Z,10.80
2019-04-25T19:32:55.798Z,10.70
2019-04-25T19:35:24.569Z,10.28
2019-04-25T19:37:55.864Z,10.48
2019-04-25T19:40:30.427Z,10.78
2019-04-25T19:43:03.782Z,9.10
2019-04-25T19:45:33.379Z,9.98
2019-04-25T19:48:02.294Z,10.40
2019-04-25T19:50:30.949Z,9.75
2019-04-25T19:52:59.658Z,8.35
2019-04-25T19:55:28.336Z,9.13
2019-04-25T19:57:57.077Z,9.55
2019-04-25T20:00:25.844Z,10.90
2019-04-25T20:03:11.228Z,10.55
2019-04-25T20:05:44.710Z,9.58
2019-04-25T20:08:17.984Z,9.05
2019-04-25T20:10:48.943Z,9.80
2019-04-25T20:13:17.860Z,9.43
2019-04-25T20:15:47.538Z,9.33
2019-04-25T20:18:16.715Z,10.13
2019-04-25T20:20:46.025Z,9.33
2019-04-25T20:23:14.943Z,10.05
2019-04-25T20:25:44.883Z,9.48
2019-04-25T20:28:14.025Z,10.60
2019-04-25T20:30:42.796Z,10.35
2019-04-25T20:33:11.506Z,9.13
2019-04-25T20:35:40.175Z,10.70
2019-04-25T20:38:08.917Z,10.15
2019-04-25T20:40:37.656Z,9.05
2019-04-25T20:43:06.324Z,10.08
2019-04-25T20:45:34.986Z,10.10
2019-04-25T20:48:03.799Z,9.73
2019-04-25T20:50:32.531Z,8.50
2019-04-25T20:53:01.174Z,9.65
2019-04-25T20:55:29.790Z,9.60
2019-04-25T20:57:58.370Z,10.98
2019-04-25T21:00:43.093Z,9.88
2019-04-25T21:03:11.863Z,9.45
2019-04-25T21:05:41.677Z,9.23
2019-04-25T21:08:10.366Z,9.58
2019-04-25T21:10:39.039Z,9.43
2019-04-25T21:13:09.338Z,9.60
2019-04-25T21:15:56.243Z,10.13
2019-04-25T21:18:26.665Z,9.08
2019-04-25T21:20:55.251Z,10.30
2019-04-25T21:23:24.166Z,9.25
2019-04-25T21:25:53.003Z,10.18
2019-04-25T21:28:21.736Z,10.32
2019-04-25T21:30:51.377Z,9.23
2019-04-25T21:33:20.748Z,10.05
2019-04-25T21:35:50.867Z,10.25
2019-04-25T21:38:19.891Z,10.10
2019-04-25T21:40:59.927Z,11.03
2019-04-25T21:43:35.674Z,9.93
2019-04-25T21:46:04.795Z,8.90
2019-04-25T21:48:33.818Z,10.03
2019-04-25T21:51:04.528Z,9.98
2019-04-25T21:53:33.209Z,9.65
2019-04-25T21:56:02.058Z,10.60
2019-04-25T21:58:33.899Z,9.83
2019-04-25T22:01:04.559Z,11.12
2019-04-25T22:03:33.282Z,10.05
2019-04-25T22:06:02.936Z,10.53
2019-04-25T22:08:31.956Z,9.78
2019-04-25T22:11:01.330Z,11.68
2019-04-25T22:13:30.193Z,9.95
2019-04-25T22:15:59.679Z,10.32
2019-04-25T22:18:29.312Z,9.70
2019-04-25T22:20:58.350Z,10.30
2019-04-25T22:23:27.358Z,10.15
2019-04-25T22:25:58.807Z,10.00
2019-04-25T22:28:28.082Z,10.78
2019-04-25T22:30:59.162Z,10.00
2019-04-25T22:33:29.886Z,9.68
2019-04-25T22:36:00.406Z,10.58
2019-04-25T22:38:29.284Z,10.05
2019-04-25T22:40:58.014Z,9.08
2019-04-25T22:43:29.875Z,10.70
2019-04-25T22:46:00.808Z,10.53
2019-04-25T22:48:35.200Z,10.10
2019-04-25T22:51:03.883Z,10.28
2019-04-25T22:53:34.095Z,10.48
2019-04-25T22:56:03.155Z,11.38
2019-04-25T22:58:31.820Z,10.30
2019-04-25T23:01:01.876Z,10.23
2019-04-25T23:03:35.611Z,10.60
2019-04-25T23:06:04.321Z,9.08
2019-04-25T23:08:34.315Z,10.10
2019-04-25T23:11:04.081Z,10.08
2019-04-25T23:13:32.899Z,11.10
2019-04-25T23:16:02.539Z,11.12
2019-04-25T23:18:32.398Z,10.23
2019-04-25T23:21:01.283Z,9.60
2019-04-25T23:23:32.338Z,11.48
2019-04-25T23:26:03.518Z,10.48
2019-04-25T23:28:40.944Z,10.40
2019-04-25T23:31:11.245Z,9.50
2019-04-25T23:33:40.012Z,10.48
2019-04-25T23:36:09.348Z,9.33
2019-04-25T23:38:38.024Z,9.80
2019-04-25T23:41:09.375Z,10.55
2019-04-25T23:43:38.318Z,9.78
2019-04-25T23:46:08.192Z,10.53
2019-04-25T23:48:37.083Z,10.98
2019-04-25T23:51:06.359Z,9.78
2019-04-25T23:53:35.566Z,10.98
2019-04-25T23:56:04.825Z,10.00
2019-04-25T23:58:33.602Z,10.30
